Currently 57°F in Simi Valley, California, USA
57°F
67°F / 52°F
4 mph W
0.00"
Monday, May 4, 2026 9:23 PM PDT

Simi Valley, California Weather Summary
Last 36 Hours

Temperature Winds Hourly Humidity Dewpoint
Time Report Norm Report Norm Max Gusts Precip. Rpt. Norm Rpt. Norm Pressure
1Mon 09:23 PM  56.7°F  61°F  4 mph W  2 mph  8 mph  0.00"  81%  65%  51°F  49°F  29.94"
Mon 09:00 PM  56.5°F  62°F  4 mph W  2 mph  14 mph  0.00"  81%  64%  50°F  49°F  29.93"
Mon 08:00 PM  57.5°F  65°F  5 mph W  3 mph  13 mph  0.00"  79%  60%  51°F  50°F  29.91"
Mon 07:00 PM  59.2°F  68°F  7 mph W  4 mph  18 mph  0.00"  73%  53%  50°F  50°F  29.91"
Mon 06:00 PM  61.0°F  71°F  7 mph SW  6 mph  19 mph  0.00"  66%  50%  49°F  50°F  29.92"
Mon 05:00 PM  62.9°F  72°F  5 mph SW  6 mph  19 mph  0.00"  61%  48%  49°F  50°F  29.91"
Mon 04:00 PM  64.0°F  73°F  8 mph W  7 mph  21 mph  0.00"  58%  46%  49°F  51°F  29.91"
Mon 03:00 PM  64.8°F  74°F  7 mph SW  7 mph  22 mph  0.00"  54%  46%  47°F  51°F  29.93"
Mon 02:00 PM  65.8°F  74°F  6 mph W  7 mph  27 mph  0.00"  47%  46%  45°F  51°F  29.93"
2Mon 01:09 PM  67.3°F  74°F  8 mph W  6 mph  14 mph  ----  49%  46%  47°F  51°F  29.94"
Mon 01:00 PM  66.9°F  74°F  6 mph SW  6 mph  16 mph  0.00"  51%  47%  48°F  51°F  29.94"
Mon 12:00 PM  63.6°F  72°F  calm  6 mph  17 mph  0.00"  56%  48%  47°F  51°F  29.95"
Mon 11:00 AM  60.7°F  70°F  4 mph NW  5 mph  15 mph  0.00"  61%  52%  47°F  51°F  29.96"
Mon 10:00 AM  59.8°F  67°F  5 mph W  4 mph  12 mph  0.00"  63%  58%  47°F  51°F  29.96"
Mon 09:00 AM  55.8°F  63°F  calm  3 mph  5 mph  0.00"  81%  66%  50°F  51°F  29.96"
Mon 08:00 AM  53.3°F  59°F  calm  2 mph  5 mph  0.00"  87%  72%  50°F  49°F  29.96"
3Mon 07:03 AM  52.1°F  55°F  calm  2 mph  3 mph  ----  87%  74%  48°F  46°F  29.95"
Mon 07:00 AM  52.2°F  55°F  calm  2 mph  4 mph  0.00"  87%  74%  48°F  46°F  29.95"
Mon 06:00 AM  52.9°F  55°F  2 mph NW  2 mph  7 mph  0.00"  87%  73%  49°F  46°F  29.94"
Mon 05:00 AM  53.5°F  55°F  4 mph NW  2 mph  6 mph  0.00"  85%  72%  49°F  46°F  29.93"
Mon 04:00 AM  54.6°F  56°F  4 mph SW  2 mph  7 mph  0.00"  86%  71%  50°F  46°F  29.92"
Mon 03:00 AM  54.8°F  56°F  2 mph NW  2 mph  4 mph  0.00"  84%  71%  50°F  46°F  29.92"
Mon 02:00 AM  54.9°F  57°F  1 mph SW  2 mph  3 mph  0.00"  84%  70%  50°F  47°F  29.94"
Mon 01:00 AM  55.3°F  57°F  1 mph SE  2 mph  4 mph  0.00"  83%  69%  50°F  47°F  29.95"
Mon 12:00 AM  55.1°F  58°F  3 mph W  2 mph  6 mph  0.00"  83%  68%  50°F  47°F  29.95"
Sun 11:00 PM  55.2°F  59°F  3 mph W  2 mph  9 mph  0.00"  83%  67%  50°F  47°F  29.94"
Sun 10:00 PM  55.5°F  60°F  7 mph NW  2 mph  9 mph  0.00"  82%  65%  50°F  48°F  29.94"
Sun 09:00 PM  56.7°F  62°F  3 mph W  2 mph  8 mph  0.00"  81%  63%  51°F  49°F  29.92"
Sun 08:00 PM  56.8°F  65°F  3 mph W  3 mph  16 mph  0.00"  81%  59%  51°F  50°F  29.90"
Sun 07:00 PM  58.1°F  69°F  6 mph W  4 mph  17 mph  0.00"  75%  52%  50°F  50°F  29.89"
Sun 06:00 PM  61.6°F  71°F  5 mph SW  6 mph  11 mph  0.00"  67%  48%  50°F  50°F  29.87"
Sun 05:00 PM  62.5°F  72°F  5 mph W  6 mph  12 mph  0.00"  65%  47%  50°F  50°F  29.86"
Sun 04:00 PM  61.8°F  73°F  6 mph NW  7 mph  11 mph  0.00"  66%  45%  50°F  50°F  29.88"
Sun 03:00 PM  60.2°F  74°F  6 mph W  7 mph  10 mph  0.00"  72%  44%  51°F  50°F  29.90"
Sun 02:00 PM  59.1°F  74°F  6 mph W  7 mph  14 mph  0.00"  76%  45%  51°F  51°F  29.91"
Sun 01:00 PM  60.1°F  74°F  4 mph NW  6 mph  9 mph  0.00"  76%  45%  52°F  51°F  29.91"
Sun 12:00 PM  57.8°F  73°F  1 mph NW  6 mph  5 mph  0.00"  89%  46%  55°F  50°F  29.92"
Sun 11:00 AM  56.3°F  70°F  2 mph NW  5 mph  8 mph  0.00"  92%  50%  54°F  50°F  29.93"
Sun 10:00 AM  55.5°F  67°F  3 mph W  4 mph  8 mph  0.00"  93%  56%  53°F  50°F  29.93"

  1. Current weather data. No green row appears if the current weather data is also the high or low for the current day.
  2. High temperature for the current day.
  3. Low temperature for the current day.

The Simi Valley, California weather pages are a service of WeatherCurrents.
Copyright ©Mon May 04 21:23:56 PDT 2026  WeatherCurrents. All rights reserved. - Submit questions and comments - Privacy Policy

This page automatically refreshes every 10 minutes.